Time;durP1;ratioP1;P1;durP2;ratioP2;P2;SDS_P1;SDS_P2;PMS_P1;PMS_P2;Temp;Humidity;BMP_temperature;BMP_pressure;BME280_temperature;BME280_humidity;BME280_pressure;Samples;Min_cycle;Max_cycle;Signal;HPM_P1;HPM_P2
2022/01/05 00:01:19;;;;;;;59.47;4.20;;;;;;;;;;5074454;28;20255;-66
2022/01/05 00:03:47;;;;;;;65.28;3.85;;;;;;;;;;5072181;28;20554;-66
2022/01/05 00:06:15;;;;;;;59.67;4.20;;;;;;;;;;5074258;28;20209;-66
2022/01/05 00:08:42;;;;;;;63.97;6.65;;;;;;;;;;5074200;28;20205;-66
2022/01/05 00:11:10;;;;;;;60.72;4.90;;;;;;;;;;5074597;28;20221;-66
2022/01/05 00:13:37;;;;;;;65.32;7.13;;;;;;;;;;5074653;28;20248;-66
2022/01/05 00:16:05;;;;;;;60.83;5.07;;;;;;;;;;5074534;28;20205;-67
2022/01/05 00:18:32;;;;;;;61.47;6.18;;;;;;;;;;5074084;28;20212;-66
2022/01/05 00:21:01;;;;;;;60.97;5.65;;;;;;;;;;5074339;28;20229;-66
2022/01/05 00:23:28;;;;;;;61.60;4.75;;;;;;;;;;5074417;28;20205;-66
2022/01/05 00:25:56;;;;;;;61.30;5.15;;;;;;;;;;5074274;28;20210;-66
2022/01/05 00:28:23;;;;;;;67.05;10.10;;;;;;;;;;5073901;28;20217;-66
2022/01/05 00:30:50;;;;;;;61.22;5.65;;;;;;;;;;5074299;28;20226;-66
2022/01/05 00:33:17;;;;;;;60.55;4.43;;;;;;;;;;5071629;28;20209;-65
2022/01/05 00:35:45;;;;;;;59.55;4.40;;;;;;;;;;5074490;28;20240;-66
2022/01/05 00:38:13;;;;;;;61.95;4.88;;;;;;;;;;5074632;28;20292;-66
2022/01/05 00:40:40;;;;;;;59.70;3.90;;;;;;;;;;5074797;28;20229;-66
2022/01/05 00:43:08;;;;;;;60.53;4.32;;;;;;;;;;5074795;28;20296;-65
2022/01/05 00:45:35;;;;;;;59.17;3.75;;;;;;;;;;5074708;28;20231;-66
2022/01/05 00:48:02;;;;;;;59.10;3.80;;;;;;;;;;5074398;28;20655;-66
2022/01/05 00:50:29;;;;;;;58.88;3.47;;;;;;;;;;5075194;28;20208;-65
2022/01/05 00:53:00;;;;;;;59.53;3.38;;;;;;;;;;5074964;28;20212;-66
2022/01/05 00:55:28;;;;;;;59.30;3.50;;;;;;;;;;5074763;28;20209;-66
2022/01/05 00:57:55;;;;;;;58.72;3.30;;;;;;;;;;5074446;28;20205;-66
2022/01/05 01:00:23;;;;;;;58.65;3.35;;;;;;;;;;5074399;28;20218;-66
2022/01/05 01:02:50;;;;;;;59.25;3.00;;;;;;;;;;5073739;28;20537;-66
2022/01/05 01:05:17;;;;;;;58.50;3.03;;;;;;;;;;5067967;28;20222;-65
2022/01/05 01:07:46;;;;;;;58.20;2.95;;;;;;;;;;5053644;28;20206;-65
2022/01/05 01:10:13;;;;;;;58.50;3.38;;;;;;;;;;5053849;28;20202;-65
2022/01/05 01:12:42;;;;;;;59.72;3.25;;;;;;;;;;5053542;28;20232;-65
2022/01/05 01:15:11;;;;;;;58.05;2.90;;;;;;;;;;5064663;28;20214;-65
2022/01/05 01:17:38;;;;;;;58.78;3.20;;;;;;;;;;5073682;28;20206;-65
2022/01/05 01:20:06;;;;;;;59.60;3.05;;;;;;;;;;5073409;28;20257;-65
2022/01/05 01:22:34;;;;;;;58.40;2.80;;;;;;;;;;5073683;28;20651;-66
2022/01/05 01:25:01;;;;;;;58.92;2.80;;;;;;;;;;5073770;28;20658;-65
2022/01/05 01:27:28;;;;;;;57.85;2.90;;;;;;;;;;5073065;28;20341;-65
2022/01/05 01:29:57;;;;;;;59.25;2.90;;;;;;;;;;5073328;28;20631;-66
2022/01/05 01:32:24;;;;;;;58.75;3.10;;;;;;;;;;5072933;28;20309;-66
2022/01/05 01:34:51;;;;;;;58.30;2.95;;;;;;;;;;5073138;28;20205;-66
2022/01/05 01:37:18;;;;;;;58.40;2.90;;;;;;;;;;5060877;28;20693;-66
2022/01/05 01:39:46;;;;;;;57.97;2.80;;;;;;;;;;5052725;28;20301;-66
2022/01/05 01:42:13;;;;;;;58.20;2.90;;;;;;;;;;5052748;28;20226;-66
2022/01/05 01:44:40;;;;;;;58.40;2.90;;;;;;;;;;5053039;28;20210;-66
2022/01/05 01:47:08;;;;;;;57.88;2.70;;;;;;;;;;5052702;28;20206;-65
2022/01/05 01:49:36;;;;;;;58.45;2.78;;;;;;;;;;5052812;28;20589;-65
2022/01/05 01:52:03;;;;;;;57.88;3.10;;;;;;;;;;5052588;28;20798;-66
2022/01/05 01:54:30;;;;;;;58.40;2.80;;;;;;;;;;5052372;28;20208;-65
2022/01/05 01:56:57;;;;;;;57.78;2.72;;;;;;;;;;5052733;28;20206;-66
2022/01/05 01:59:25;;;;;;;57.78;2.65;;;;;;;;;;5052828;28;20212;-66
2022/01/05 02:01:52;;;;;;;58.08;2.70;;;;;;;;;;5053038;28;20230;-65
2022/01/05 02:04:21;;;;;;;57.65;2.60;;;;;;;;;;5053321;28;20202;-66
2022/01/05 02:06:48;;;;;;;58.95;2.80;;;;;;;;;;5058401;28;20296;-65
2022/01/05 02:09:16;;;;;;;58.17;2.60;;;;;;;;;;5060911;28;20306;-66
2022/01/05 02:11:44;;;;;;;58.17;2.40;;;;;;;;;;5054318;28;20233;-66
2022/01/05 02:14:11;;;;;;;58.08;2.50;;;;;;;;;;5053692;28;20214;-66
2022/01/05 02:16:43;;;;;;;58.08;2.55;;;;;;;;;;5053349;28;20585;-65
2022/01/05 02:19:10;;;;;;;57.70;2.45;;;;;;;;;;5054072;28;20481;-66
2022/01/05 02:21:39;;;;;;;58.10;2.60;;;;;;;;;;5054110;28;20266;-66
2022/01/05 02:24:07;;;;;;;58.30;2.50;;;;;;;;;;5053929;28;20210;-66
2022/01/05 02:26:34;;;;;;;58.17;2.70;;;;;;;;;;5054105;28;20289;-66
2022/01/05 02:29:02;;;;;;;58.95;2.75;;;;;;;;;;5053367;28;20336;-66
2022/01/05 02:31:29;;;;;;;58.30;2.70;;;;;;;;;;5053992;28;20661;-66
2022/01/05 02:33:56;;;;;;;58.30;2.70;;;;;;;;;;5053581;28;20213;-65
2022/01/05 02:36:24;;;;;;;57.78;2.30;;;;;;;;;;5053853;28;20293;-65
2022/01/05 02:38:53;;;;;;;57.20;2.50;;;;;;;;;;5053153;28;20216;-65
2022/01/05 02:41:21;;;;;;;58.30;2.70;;;;;;;;;;5053627;28;20317;-65
2022/01/05 02:43:48;;;;;;;57.60;2.58;;;;;;;;;;5055483;28;20297;-66
2022/01/05 02:46:16;;;;;;;60.70;2.50;;;;;;;;;;5054961;28;20226;-66
2022/01/05 02:48:44;;;;;;;58.10;2.60;;;;;;;;;;5054844;28;20203;-66
2022/01/05 02:51:11;;;;;;;58.50;2.65;;;;;;;;;;5054873;28;20255;-65
2022/01/05 02:53:39;;;;;;;58.45;2.60;;;;;;;;;;5055059;28;20206;-66
2022/01/05 02:56:07;;;;;;;58.38;2.60;;;;;;;;;;5055050;28;20206;-66
2022/01/05 02:58:35;;;;;;;58.40;2.53;;;;;;;;;;5054402;28;20217;-66
2022/01/05 03:01:02;;;;;;;58.13;2.45;;;;;;;;;;5054667;28;20321;-66
2022/01/05 03:03:29;;;;;;;58.28;2.72;;;;;;;;;;5054261;28;20212;-66
2022/01/05 03:05:56;;;;;;;58.40;3.00;;;;;;;;;;5053646;28;20645;-66
2022/01/05 03:08:23;;;;;;;57.85;2.72;;;;;;;;;;5054105;28;20226;-66
2022/01/05 03:10:51;;;;;;;58.28;2.65;;;;;;;;;;5053058;28;20313;-66
2022/01/05 03:13:19;;;;;;;61.00;3.20;;;;;;;;;;5054131;28;20580;-66
2022/01/05 03:15:47;;;;;;;58.58;2.70;;;;;;;;;;5053204;28;20206;-66
2022/01/05 03:18:14;;;;;;;57.83;2.28;;;;;;;;;;5053143;28;20263;-66
2022/01/05 03:20:41;;;;;;;58.20;2.58;;;;;;;;;;5053133;28;20295;-66
2022/01/05 03:23:08;;;;;;;57.45;2.40;;;;;;;;;;5053116;28;20208;-66
2022/01/05 03:25:35;;;;;;;58.40;2.60;;;;;;;;;;5052434;28;20214;-66
2022/01/05 03:28:02;;;;;;;57.75;2.55;;;;;;;;;;5056509;28;20274;-66
2022/01/05 03:30:33;;;;;;;59.10;2.70;;;;;;;;;;5056645;28;20238;-66
2022/01/05 03:33:11;;;;;;;58.20;2.70;;;;;;;;;;5056606;28;20207;-66
2022/01/05 03:35:40;;;;;;;58.58;2.70;;;;;;;;;;5056320;28;20300;-66
2022/01/05 03:38:07;;;;;;;57.90;2.65;;;;;;;;;;5055862;28;20671;-66
2022/01/05 03:40:35;;;;;;;58.08;2.60;;;;;;;;;;5055757;28;20753;-66
2022/01/05 03:43:02;;;;;;;57.97;2.45;;;;;;;;;;5056373;28;20207;-65
2022/01/05 03:45:31;;;;;;;58.08;2.53;;;;;;;;;;5056889;28;20727;-66
2022/01/05 03:47:58;;;;;;;58.05;2.60;;;;;;;;;;5055972;28;20212;-66
2022/01/05 03:50:26;;;;;;;59.60;2.88;;;;;;;;;;5055592;28;20217;-66
2022/01/05 03:52:53;;;;;;;58.30;2.78;;;;;;;;;;5055948;28;20207;-66
2022/01/05 03:55:20;;;;;;;59.75;2.60;;;;;;;;;;5055660;28;20202;-66
2022/01/05 03:57:47;;;;;;;57.88;2.50;;;;;;;;;;5055196;28;20241;-66
2022/01/05 04:00:15;;;;;;;58.00;2.60;;;;;;;;;;5055459;28;20207;-67
2022/01/05 04:02:44;;;;;;;58.38;2.67;;;;;;;;;;5055020;28;20241;-66
2022/01/05 04:05:11;;;;;;;57.70;2.30;;;;;;;;;;5055206;28;20305;-66
2022/01/05 04:07:38;;;;;;;57.72;2.40;;;;;;;;;;5055212;28;20206;-66
2022/01/05 04:10:06;;;;;;;58.17;2.80;;;;;;;;;;5055509;28;20207;-66
2022/01/05 04:12:33;;;;;;;58.10;2.38;;;;;;;;;;5055763;28;20225;-65
2022/01/05 04:15:00;;;;;;;57.85;2.60;;;;;;;;;;5055087;28;20293;-65
2022/01/05 04:17:27;;;;;;;58.08;2.42;;;;;;;;;;5054668;28;20301;-65
2022/01/05 04:19:56;;;;;;;57.97;2.80;;;;;;;;;;5055499;28;20302;-65
2022/01/05 04:22:23;;;;;;;58.10;2.40;;;;;;;;;;5055706;28;20241;-65
2022/01/05 04:24:50;;;;;;;58.17;2.60;;;;;;;;;;5056160;28;20208;-65
2022/01/05 04:27:17;;;;;;;58.00;2.60;;;;;;;;;;5055274;28;20292;-66
2022/01/05 04:29:45;;;;;;;57.85;2.28;;;;;;;;;;5054639;28;20698;-66
2022/01/05 04:32:12;;;;;;;58.08;2.78;;;;;;;;;;5054972;28;20694;-66
2022/01/05 04:34:39;;;;;;;57.90;2.35;;;;;;;;;;5054647;28;20297;-69
2022/01/05 04:37:08;;;;;;;58.30;2.60;;;;;;;;;;5054878;28;20206;-66
2022/01/05 04:39:36;;;;;;;58.75;2.75;;;;;;;;;;5056111;28;20217;-66
2022/01/05 04:42:03;;;;;;;57.60;2.70;;;;;;;;;;5067550;28;20236;-66
2022/01/05 04:44:31;;;;;;;61.40;2.70;;;;;;;;;;5067400;28;20238;-66
2022/01/05 04:46:58;;;;;;;58.00;2.40;;;;;;;;;;5068115;28;20241;-66
2022/01/05 04:49:25;;;;;;;58.35;2.90;;;;;;;;;;5068214;28;20256;-66
2022/01/05 04:51:52;;;;;;;58.10;2.60;;;;;;;;;;5061994;28;20766;-67
2022/01/05 04:54:21;;;;;;;57.97;2.60;;;;;;;;;;5055447;28;20297;-66
2022/01/05 04:56:48;;;;;;;57.78;2.70;;;;;;;;;;5057679;28;20293;-66
2022/01/05 04:59:15;;;;;;;57.65;2.60;;;;;;;;;;5062227;28;20209;-66
2022/01/05 05:01:42;;;;;;;58.10;2.67;;;;;;;;;;5054522;28;20230;-65
2022/01/05 05:04:09;;;;;;;58.47;2.75;;;;;;;;;;5054343;28;20212;-66
2022/01/05 05:06:36;;;;;;;57.70;2.72;;;;;;;;;;5054432;28;20214;-65
2022/01/05 05:09:04;;;;;;;57.95;2.50;;;;;;;;;;5054423;28;20246;-66
2022/01/05 05:11:32;;;;;;;57.83;2.30;;;;;;;;;;5055431;28;20230;-67
2022/01/05 05:13:59;;;;;;;58.13;2.40;;;;;;;;;;5055983;28;20211;-67
2022/01/05 05:16:27;;;;;;;58.20;2.50;;;;;;;;;;5055364;28;20216;-66
2022/01/05 05:18:54;;;;;;;58.88;2.80;;;;;;;;;;5055006;28;20701;-66
2022/01/05 05:21:21;;;;;;;58.13;2.60;;;;;;;;;;5055689;28;20230;-66
2022/01/05 05:23:48;;;;;;;57.75;2.75;;;;;;;;;;5055710;28;20203;-66
2022/01/05 05:26:15;;;;;;;59.15;3.03;;;;;;;;;;5054880;28;20293;-66
2022/01/05 05:28:44;;;;;;;58.63;2.95;;;;;;;;;;5055148;28;20314;-66
2022/01/05 05:31:11;;;;;;;58.60;3.20;;;;;;;;;;5055516;28;20254;-67
2022/01/05 05:33:38;;;;;;;58.38;2.80;;;;;;;;;;5056045;28;20639;-66
2022/01/05 05:36:05;;;;;;;58.47;3.17;;;;;;;;;;5055635;28;20209;-68
2022/01/05 05:38:33;;;;;;;58.55;4.55;;;;;;;;;;5054962;28;20736;-68
2022/01/05 05:41:00;;;;;;;59.05;3.83;;;;;;;;;;5054590;28;20726;-69
2022/01/05 05:43:27;;;;;;;59.90;4.00;;;;;;;;;;5054309;28;20718;-67
2022/01/05 05:45:56;;;;;;;59.20;3.83;;;;;;;;;;5054399;28;20209;-67
2022/01/05 05:48:23;;;;;;;60.03;4.00;;;;;;;;;;5053594;28;20301;-69
2022/01/05 05:50:50;;;;;;;59.58;4.50;;;;;;;;;;5053974;28;20230;-67
2022/01/05 05:53:17;;;;;;;59.30;3.80;;;;;;;;;;5054521;28;20212;-67
2022/01/05 05:55:44;;;;;;;59.55;4.30;;;;;;;;;;5054733;28;20206;-67
2022/01/05 05:58:11;;;;;;;60.78;4.75;;;;;;;;;;5055085;28;20765;-68
2022/01/05 06:00:38;;;;;;;59.55;4.20;;;;;;;;;;5055877;28;20237;-67
2022/01/05 06:03:07;;;;;;;59.38;3.88;;;;;;;;;;5055394;28;20229;-67
2022/01/05 06:05:34;;;;;;;60.83;4.40;;;;;;;;;;5054869;28;20309;-67
2022/01/05 06:08:01;;;;;;;61.60;4.30;;;;;;;;;;5056735;28;20225;-67
2022/01/05 06:10:29;;;;;;;59.78;4.10;;;;;;;;;;5055637;28;20202;-67
2022/01/05 06:12:56;;;;;;;60.45;4.10;;;;;;;;;;5055732;28;20297;-68
2022/01/05 06:15:23;;;;;;;60.30;3.90;;;;;;;;;;5055392;28;20312;-67
2022/01/05 06:17:50;;;;;;;59.97;4.30;;;;;;;;;;5055188;28;20468;-67
2022/01/05 06:20:18;;;;;;;61.40;4.15;;;;;;;;;;5055706;28;20697;-68
2022/01/05 06:22:46;;;;;;;59.45;4.05;;;;;;;;;;5055543;28;20229;-68
2022/01/05 06:25:13;;;;;;;60.50;4.47;;;;;;;;;;5056346;28;20689;-67
2022/01/05 06:27:41;;;;;;;61.95;5.95;;;;;;;;;;5055160;28;20595;-66
2022/01/05 06:30:09;;;;;;;60.45;5.20;;;;;;;;;;5055784;28;20588;-67
2022/01/05 06:32:36;;;;;;;65.18;5.95;;;;;;;;;;5055266;28;20218;-68
2022/01/05 06:35:04;;;;;;;61.17;5.40;;;;;;;;;;5055514;28;20580;-67
2022/01/05 06:37:32;;;;;;;61.60;6.00;;;;;;;;;;5055735;28;20218;-67
2022/01/05 06:39:59;;;;;;;61.45;6.20;;;;;;;;;;5055670;28;20206;-67
2022/01/05 06:42:27;;;;;;;65.25;7.93;;;;;;;;;;5055642;28;20698;-67
2022/01/05 06:44:54;;;;;;;63.58;7.28;;;;;;;;;;5055263;28;20206;-68
2022/01/05 06:47:21;;;;;;;65.78;7.85;;;;;;;;;;5054748;28;20777;-68
2022/01/05 06:49:48;;;;;;;60.85;5.70;;;;;;;;;;5056056;28;20209;-67
2022/01/05 06:52:15;;;;;;;63.10;6.50;;;;;;;;;;5055380;28;20752;-67
2022/01/05 06:54:43;;;;;;;61.40;5.00;;;;;;;;;;5055417;28;20206;-67
2022/01/05 06:57:11;;;;;;;61.15;6.18;;;;;;;;;;5055817;28;20212;-68
2022/01/05 06:59:39;;;;;;;59.35;4.55;;;;;;;;;;5056352;28;20232;-67
2022/01/05 07:02:06;;;;;;;59.50;4.38;;;;;;;;;;5057703;28;20273;-68
2022/01/05 07:04:33;;;;;;;60.67;4.40;;;;;;;;;;5059908;28;20384;-68
2022/01/05 07:07:00;;;;;;;61.55;4.85;;;;;;;;;;5060744;28;20285;-68
2022/01/05 07:09:28;;;;;;;60.15;4.47;;;;;;;;;;5060840;28;20208;-67
2022/01/05 07:11:56;;;;;;;60.08;4.88;;;;;;;;;;5060834;28;20218;-68
2022/01/05 07:14:24;;;;;;;60.55;4.25;;;;;;;;;;5060385;28;20312;-68
2022/01/05 07:16:51;;;;;;;59.10;4.20;;;;;;;;;;5061154;28;20212;-67
2022/01/05 07:19:19;;;;;;;59.08;4.03;;;;;;;;;;5061294;28;20210;-67
2022/01/05 07:21:47;;;;;;;59.03;4.22;;;;;;;;;;5060686;28;20232;-67
2022/01/05 07:24:17;;;;;;;59.33;4.05;;;;;;;;;;5059977;28;20234;-68
2022/01/05 07:26:45;;;;;;;62.50;4.30;;;;;;;;;;5059049;28;20653;-67
2022/01/05 07:29:13;;;;;;;60.47;4.40;;;;;;;;;;5058283;28;20206;-67
2022/01/05 07:31:41;;;;;;;59.35;3.80;;;;;;;;;;5058706;28;20241;-67
2022/01/05 07:34:08;;;;;;;61.97;4.28;;;;;;;;;;5059889;28;20297;-67
2022/01/05 07:36:35;;;;;;;59.65;3.78;;;;;;;;;;5058165;28;20696;-68
2022/01/05 07:39:04;;;;;;;58.72;3.40;;;;;;;;;;5057187;28;20213;-68
2022/01/05 07:41:32;;;;;;;59.60;3.70;;;;;;;;;;5061403;28;20640;-68
2022/01/05 07:43:59;;;;;;;62.20;4.22;;;;;;;;;;5060218;28;20316;-67
2022/01/05 07:46:28;;;;;;;58.70;4.00;;;;;;;;;;5059667;28;20240;-67
2022/01/05 07:48:55;;;;;;;60.95;4.43;;;;;;;;;;5059811;28;20241;-67
2022/01/05 07:51:22;;;;;;;59.70;4.15;;;;;;;;;;5060406;28;20238;-67
2022/01/05 07:53:49;;;;;;;61.40;4.80;;;;;;;;;;5059434;28;20202;-67
2022/01/05 07:56:16;;;;;;;58.97;4.30;;;;;;;;;;5058806;28;20210;-67
2022/01/05 07:58:43;;;;;;;60.88;5.05;;;;;;;;;;5060022;28;20289;-67
2022/01/05 08:01:10;;;;;;;60.08;4.57;;;;;;;;;;5060492;28;20218;-67
2022/01/05 08:03:39;;;;;;;59.83;5.07;;;;;;;;;;5060380;28;20222;-67
2022/01/05 08:06:06;;;;;;;59.85;4.50;;;;;;;;;;5060398;28;20310;-67
2022/01/05 08:08:34;;;;;;;60.70;4.85;;;;;;;;;;5060106;28;20297;-67
2022/01/05 08:11:01;;;;;;;62.22;4.60;;;;;;;;;;5060754;28;20321;-68
2022/01/05 08:13:28;;;;;;;60.55;5.35;;;;;;;;;;5059567;28;20262;-67
2022/01/05 08:15:55;;;;;;;59.28;4.30;;;;;;;;;;5060088;28;20513;-67
2022/01/05 08:18:23;;;;;;;59.95;4.57;;;;;;;;;;5057980;28;20626;-67
2022/01/05 08:20:51;;;;;;;61.55;4.90;;;;;;;;;;5058293;28;20237;-67
2022/01/05 08:23:19;;;;;;;58.97;4.60;;;;;;;;;;5057803;28;20222;-67
2022/01/05 08:25:46;;;;;;;61.90;4.75;;;;;;;;;;5057847;28;20305;-66
2022/01/05 08:28:13;;;;;;;60.35;4.95;;;;;;;;;;5056488;28;20285;-67
2022/01/05 08:30:40;;;;;;;61.30;4.82;;;;;;;;;;5057150;28;20222;-67
2022/01/05 08:33:08;;;;;;;63.15;5.70;;;;;;;;;;5056278;28;20297;-67
2022/01/05 08:35:36;;;;;;;60.10;4.35;;;;;;;;;;5056234;28;20215;-67
2022/01/05 08:38:04;;;;;;;62.42;5.05;;;;;;;;;;5055397;28;20210;-67
2022/01/05 08:40:33;;;;;;;63.20;5.18;;;;;;;;;;5056057;28;20650;-67
2022/01/05 08:43:01;;;;;;;62.92;4.85;;;;;;;;;;5055795;28;20781;-68
2022/01/05 08:45:28;;;;;;;59.55;4.70;;;;;;;;;;5055476;28;20210;-67
2022/01/05 08:47:56;;;;;;;61.88;4.80;;;;;;;;;;5054714;28;20202;-67
2022/01/05 08:50:24;;;;;;;61.45;4.95;;;;;;;;;;5055485;28;20210;-67
2022/01/05 08:52:52;;;;;;;62.42;5.90;;;;;;;;;;5054588;28;20270;-67
2022/01/05 08:55:21;;;;;;;61.90;5.00;;;;;;;;;;5055403;28;20560;-67
2022/01/05 08:57:49;;;;;;;64.15;5.10;;;;;;;;;;5055499;28;20205;-67
2022/01/05 09:00:17;;;;;;;66.22;5.53;;;;;;;;;;5056027;28;20207;-67
2022/01/05 09:02:44;;;;;;;62.00;4.82;;;;;;;;;;5056736;28;20308;-67
2022/01/05 09:05:11;;;;;;;59.58;4.60;;;;;;;;;;5056613;28;20214;-67
2022/01/05 09:07:39;;;;;;;59.92;5.20;;;;;;;;;;5057334;28;20329;-67
2022/01/05 09:10:06;;;;;;;61.10;4.70;;;;;;;;;;5057240;28;20285;-67
2022/01/05 09:12:35;;;;;;;59.33;4.60;;;;;;;;;;5057512;28;20317;-67
2022/01/05 09:15:02;;;;;;;62.25;5.40;;;;;;;;;;5055947;28;20270;-67
2022/01/05 09:17:29;;;;;;;63.83;5.05;;;;;;;;;;5053901;28;20238;-67
2022/01/05 09:19:56;;;;;;;63.20;5.28;;;;;;;;;;5054126;28;20298;-66
2022/01/05 09:22:24;;;;;;;61.92;4.25;;;;;;;;;;5054043;28;20317;-66
2022/01/05 09:24:52;;;;;;;67.03;5.05;;;;;;;;;;5053718;28;20301;-66
2022/01/05 09:27:19;;;;;;;62.60;4.68;;;;;;;;;;5054153;28;20281;-67
2022/01/05 09:29:48;;;;;;;59.92;4.00;;;;;;;;;;5054684;28;20238;-67
2022/01/05 09:32:15;;;;;;;67.28;4.85;;;;;;;;;;5054765;28;20227;-66
2022/01/05 09:34:43;;;;;;;63.38;4.22;;;;;;;;;;5054325;28;20681;-67
2022/01/05 09:37:17;;;;;;;61.17;4.15;;;;;;;;;;5053713;28;20305;-66
2022/01/05 09:42:30;;;;;;;66.13;4.93;;;;;;;;;;5053371;28;20217;-66
2022/01/05 09:44:59;;;;;;;62.35;4.05;;;;;;;;;;5053775;28;20268;-66
2022/01/05 09:47:38;;;;;;;63.75;3.90;;;;;;;;;;5053077;28;20297;-66
2022/01/05 09:50:07;;;;;;;64.78;3.97;;;;;;;;;;5053387;28;20297;-67
2022/01/05 09:52:35;;;;;;;61.25;3.75;;;;;;;;;;5054032;28;20288;-66
2022/01/05 09:55:02;;;;;;;59.83;4.00;;;;;;;;;;5054042;28;20206;-65
2022/01/05 09:57:30;;;;;;;63.45;3.22;;;;;;;;;;5052785;28;20232;-66
2022/01/05 09:59:58;;;;;;;60.35;3.95;;;;;;;;;;5053823;28;20202;-66
2022/01/05 10:02:26;;;;;;;66.90;4.05;;;;;;;;;;5053456;28;20225;-66
2022/01/05 10:04:53;;;;;;;65.10;3.80;;;;;;;;;;5053187;28;20210;-65
2022/01/05 10:07:20;;;;;;;60.63;4.10;;;;;;;;;;5052891;28;20209;-65
2022/01/05 10:09:49;;;;;;;58.78;4.20;;;;;;;;;;5052755;28;20207;-66
2022/01/05 10:12:16;;;;;;;59.00;3.88;;;;;;;;;;5052559;28;20626;-66
2022/01/05 10:14:46;;;;;;;60.90;4.30;;;;;;;;;;5052611;28;20203;-66
2022/01/05 10:17:17;;;;;;;60.40;4.13;;;;;;;;;;5052599;28;20207;-65
2022/01/05 10:19:44;;;;;;;63.95;4.10;;;;;;;;;;5052979;28;20203;-65
2022/01/05 10:22:30;;;;;;;60.65;3.50;;;;;;;;;;5052935;28;20223;-65
2022/01/05 10:24:57;;;;;;;60.63;3.90;;;;;;;;;;5052976;28;20287;-65
2022/01/05 10:27:25;;;;;;;59.40;3.55;;;;;;;;;;5052296;28;20303;-65
2022/01/05 10:29:53;;;;;;;62.33;3.70;;;;;;;;;;5052563;28;20216;-65
2022/01/05 10:32:21;;;;;;;62.27;3.57;;;;;;;;;;5052234;28;20232;-65
2022/01/05 10:35:00;;;;;;;60.00;3.50;;;;;;;;;;5053521;28;20475;-66
2022/01/05 10:37:27;;;;;;;59.87;3.30;;;;;;;;;;5054582;28;20448;-65
2022/01/05 10:40:04;;;;;;;66.73;4.30;;;;;;;;;;5054972;28;20890;-66
2022/01/05 10:42:32;;;;;;;60.83;3.83;;;;;;;;;;5053776;28;20539;-65
2022/01/05 10:45:01;;;;;;;60.80;3.40;;;;;;;;;;5053733;28;20488;-66
2022/01/05 10:47:30;;;;;;;64.93;3.63;;;;;;;;;;5053897;28;20449;-66
2022/01/05 10:49:57;;;;;;;60.47;3.70;;;;;;;;;;5054119;28;20963;-66
2022/01/05 10:52:26;;;;;;;60.67;3.50;;;;;;;;;;5053658;28;20549;-66
2022/01/05 10:54:54;;;;;;;60.87;3.13;;;;;;;;;;5053670;28;20452;-66
2022/01/05 10:57:22;;;;;;;60.27;3.47;;;;;;;;;;5053596;28;20539;-66
2022/01/05 10:59:49;;;;;;;68.20;3.22;;;;;;;;;;5053208;28;20987;-66
2022/01/05 11:02:26;;;;;;;61.50;4.03;;;;;;;;;;5052712;28;20226;-65
2022/01/05 11:04:56;;;;;;;62.13;3.38;;;;;;;;;;5052481;28;20226;-66
2022/01/05 11:07:23;;;;;;;61.67;3.67;;;;;;;;;;5053101;28;20206;-66
2022/01/05 11:09:54;;;;;;;64.60;3.70;;;;;;;;;;5052862;28;20212;-66
2022/01/05 11:12:21;;;;;;;63.23;4.10;;;;;;;;;;5052336;28;20906;-67
2022/01/05 11:14:49;;;;;;;62.03;3.60;;;;;;;;;;5052566;28;20980;-66
2022/01/05 11:17:18;;;;;;;61.30;3.50;;;;;;;;;;5051810;28;20452;-66
2022/01/05 11:19:45;;;;;;;62.13;3.50;;;;;;;;;;5051847;28;20814;-66
2022/01/05 11:22:15;;;;;;;60.10;3.33;;;;;;;;;;5051990;28;20565;-66
2022/01/05 11:24:43;;;;;;;62.53;3.63;;;;;;;;;;5051476;28;20487;-66
2022/01/05 11:27:11;;;;;;;62.90;3.40;;;;;;;;;;5051779;28;20531;-66
2022/01/05 11:29:38;;;;;;;64.17;3.43;;;;;;;;;;5052911;28;20474;-66
2022/01/05 11:32:07;;;;;;;61.13;3.57;;;;;;;;;;5054132;28;20526;-66
2022/01/05 11:34:34;;;;;;;64.43;4.10;;;;;;;;;;5053604;28;20444;-66
2022/01/05 11:37:02;;;;;;;61.33;4.10;;;;;;;;;;5053092;28;20465;-66
2022/01/05 11:39:34;;;;;;;58.23;3.23;;;;;;;;;;5054125;28;20835;-65
2022/01/05 11:42:03;;;;;;;63.07;5.07;;;;;;;;;;5053062;28;20529;-65
2022/01/05 11:44:30;;;;;;;60.13;3.80;;;;;;;;;;5053883;28;20861;-66
2022/01/05 11:46:58;;;;;;;58.85;3.78;;;;;;;;;;5053665;28;20509;-65
2022/01/05 11:49:26;;;;;;;60.37;4.07;;;;;;;;;;5056192;28;20592;-65
2022/01/05 11:51:55;;;;;;;61.85;4.43;;;;;;;;;;5057150;28;21074;-65
2022/01/05 11:54:24;;;;;;;62.40;3.60;;;;;;;;;;5056575;28;20232;-66
2022/01/05 11:56:53;;;;;;;62.30;3.93;;;;;;;;;;5056552;28;20455;-66
2022/01/05 11:59:25;;;;;;;62.65;4.15;;;;;;;;;;5054947;28;20454;-66
2022/01/05 12:02:00;;;;;;;60.77;3.93;;;;;;;;;;5054891;28;20234;-66
2022/01/05 12:04:27;;;;;;;64.20;3.90;;;;;;;;;;5054746;28;20488;-66
2022/01/05 12:07:06;;;;;;;63.63;4.00;;;;;;;;;;5055161;28;20462;-66
2022/01/05 12:09:35;;;;;;;60.30;3.60;;;;;;;;;;5055510;28;20466;-65
2022/01/05 12:12:23;;;;;;;62.70;3.50;;;;;;;;;;5055287;28;20556;-66
2022/01/05 12:14:50;;;;;;;62.13;4.20;;;;;;;;;;5055122;28;20456;-66
2022/01/05 12:17:18;;;;;;;60.20;3.87;;;;;;;;;;5055447;28;20221;-66
2022/01/05 12:20:04;;;;;;;62.65;4.60;;;;;;;;;;5055974;28;20456;-65
2022/01/05 12:22:32;;;;;;;61.40;4.10;;;;;;;;;;5054918;28;20301;-66
2022/01/05 12:25:27;;;;;;;72.70;5.50;;;;;;;;;;5055516;28;20226;-65
2022/01/05 12:28:03;;;;;;;61.58;4.32;;;;;;;;;;5054211;28;20642;-66
2022/01/05 12:30:36;;;;;;;60.65;3.70;;;;;;;;;;5054366;28;20648;-66
2022/01/05 12:33:04;;;;;;;60.13;3.20;;;;;;;;;;5054312;28;20301;-66
2022/01/05 12:35:43;;;;;;;60.80;3.55;;;;;;;;;;5054568;28;20265;-66
2022/01/05 12:38:10;;;;;;;61.03;3.67;;;;;;;;;;5056091;28;20301;-66
2022/01/05 12:40:39;;;;;;;60.60;3.50;;;;;;;;;;5056614;28;20225;-66
2022/01/05 12:43:24;;;;;;;61.95;4.10;;;;;;;;;;5056209;28;20214;-66
2022/01/05 12:45:54;;;;;;;59.83;3.20;;;;;;;;;;5055901;28;20273;-66
2022/01/05 12:48:39;;;;;;;61.20;3.80;;;;;;;;;;5055639;28;20630;-66
2022/01/05 12:51:25;;;;;;;64.20;3.83;;;;;;;;;;5055964;28;20475;-66
2022/01/05 12:53:53;;;;;;;61.30;3.67;;;;;;;;;;5054648;28;20441;-66
2022/01/05 12:56:20;;;;;;;65.40;4.00;;;;;;;;;;5054119;28;20484;-67
2022/01/05 12:58:48;;;;;;;61.20;3.70;;;;;;;;;;5052616;28;20535;-66
2022/01/05 13:01:17;;;;;;;61.07;3.50;;;;;;;;;;5054204;28;21018;-67
2022/01/05 13:03:44;;;;;;;62.80;4.33;;;;;;;;;;5055473;28;20480;-66
2022/01/05 13:06:14;;;;;;;60.17;3.70;;;;;;;;;;5055355;28;20464;-66
2022/01/05 13:08:47;;;;;;;66.10;3.73;;;;;;;;;;5056702;28;20475;-66
2022/01/05 13:11:14;;;;;;;62.60;4.40;;;;;;;;;;5056780;28;20469;-67
2022/01/05 13:13:42;;;;;;;63.63;4.03;;;;;;;;;;5058510;28;20449;-65
2022/01/05 13:16:10;;;;;;;62.30;3.27;;;;;;;;;;5059794;28;20523;-67
2022/01/05 13:18:38;;;;;;;69.40;3.70;;;;;;;;;;5059496;28;20448;-67
2022/01/05 13:21:06;;;;;;;59.33;3.27;;;;;;;;;;5058600;28;20555;-67
2022/01/05 13:23:34;;;;;;;61.83;4.47;;;;;;;;;;5058190;28;20814;-67
2022/01/05 13:26:09;;;;;;;61.50;4.30;;;;;;;;;;5058747;28;20535;-67
2022/01/05 13:28:38;;;;;;;61.93;3.77;;;;;;;;;;5057259;28;20460;-66
2022/01/05 13:31:10;;;;;;;59.17;3.27;;;;;;;;;;5056114;28;20488;-67
2022/01/05 13:33:38;;;;;;;63.60;3.73;;;;;;;;;;5054992;28;20459;-66
2022/01/05 13:36:06;;;;;;;59.70;3.20;;;;;;;;;;5054600;28;20453;-67
2022/01/05 13:38:34;;;;;;;64.27;3.50;;;;;;;;;;5053278;28;20448;-66
2022/01/05 13:41:04;;;;;;;60.63;3.77;;;;;;;;;;5053574;28;20555;-66
2022/01/05 13:43:31;;;;;;;64.23;3.60;;;;;;;;;;5053566;28;20456;-65
2022/01/05 13:45:58;;;;;;;59.13;3.10;;;;;;;;;;5053710;28;21001;-66
2022/01/05 13:48:26;;;;;;;63.42;3.63;;;;;;;;;;5053297;28;20540;-66
2022/01/05 13:50:56;;;;;;;58.15;2.85;;;;;;;;;;5053282;28;20321;-66
2022/01/05 13:53:24;;;;;;;63.03;3.58;;;;;;;;;;5053296;28;20206;-66
2022/01/05 13:55:52;;;;;;;63.38;4.13;;;;;;;;;;5053565;28;20202;-66
2022/01/05 13:58:20;;;;;;;60.40;3.50;;;;;;;;;;5053419;28;20209;-66
2022/01/05 14:00:48;;;;;;;60.15;3.53;;;;;;;;;;5053277;28;20317;-66
2022/01/05 14:03:26;;;;;;;61.10;3.90;;;;;;;;;;5052990;28;20582;-65
2022/01/05 14:05:54;;;;;;;58.97;3.55;;;;;;;;;;5053150;28;20222;-65
2022/01/05 14:08:28;;;;;;;60.88;3.80;;;;;;;;;;5052969;28;20688;-66
2022/01/05 14:11:03;;;;;;;60.33;3.70;;;;;;;;;;5052733;28;20605;-66
2022/01/05 14:13:30;;;;;;;60.35;3.40;;;;;;;;;;5053040;28;20296;-66
2022/01/05 14:15:59;;;;;;;59.47;3.60;;;;;;;;;;5053213;28;20202;-66
2022/01/05 14:18:27;;;;;;;61.17;3.20;;;;;;;;;;5052814;28;20206;-66
2022/01/05 14:20:56;;;;;;;61.95;3.60;;;;;;;;;;5053042;28;20231;-67
2022/01/05 14:23:23;;;;;;;62.53;4.05;;;;;;;;;;5052979;28;20746;-65
2022/01/05 14:25:51;;;;;;;64.50;3.85;;;;;;;;;;5053230;28;20227;-66
2022/01/05 14:28:20;;;;;;;60.38;3.22;;;;;;;;;;5053273;28;20300;-66
2022/01/05 14:30:57;;;;;;;65.10;3.80;;;;;;;;;;5053394;28;20229;-66
2022/01/05 14:33:32;;;;;;;61.45;3.75;;;;;;;;;;5052811;28;20248;-66
2022/01/05 14:36:01;;;;;;;59.10;3.50;;;;;;;;;;5052375;28;20549;-66
2022/01/05 14:38:28;;;;;;;59.60;3.50;;;;;;;;;;5052453;28;20207;-66
2022/01/05 14:41:07;;;;;;;62.55;4.53;;;;;;;;;;5052342;28;20230;-66